메인 페이지
METAR-TAF:

METAR-TAF

공항 :

Phillip Goldston

벨리즈시티, 벨리즈

위도: 17-32N, 경도: 088-18W, 고도: 5m

현재 날씨관측

예보는 10분 전, 14:00시(UTC)에 발표되었습니다.
북북서3kt
온도 24°C
습도 89%
기압 1018 hPa
시정 10km 이상
고도 2400ft 상공 구름 조금
고도 4700ft 상공 구름 많음

METAR: MZBZ 061400Z 34003KT 9999 FEW024 BKN047 24/22 A3008 Q1018 NOSIG

시각: 08:10 (14:10 UTC)

예보

예보는 3 시간 10분 전, 11:00시(UTC)에 발표되었습니다.
예보 대상 시간: 06일 12시부터 07일 12시까지 (UTC)
북서3kt
시정 10km 이상
고도 2000ft 상공 구름 조금
고도 4500ft 상공 구름 보통
전환 중
06일 15시부터 06일 17시까지 (UTC)
동북동8kt
전환 중
07일 05시부터 07일 07시까지 (UTC)
여러 방향의 바람 3kt

TAF: MZBZ 061100Z 0612/0712 32003KT 9999 FEW020 SCT045 BECMG 0615/0617 07008KT BECMG 0705/0707 VRB03KT

4,000개 이상의 공항 관측 자료 및 예보 (METAR 및 TAF 보고).

지도상에서 검색 가능한 기상관측소가 노란 점과 빨간 점으로 표시되어 있습니다.

기상관측소 명을 보려면 표시 위로 마우스를 이동하세요.

날씨 관측과 예보를 보려면 클릭하세요.

지도 변경 : 확대하려면 엑스 표시가 있는 녹색 버튼, 축소하려면 빼기 표시가 있는 녹색 버튼, 다음 페이지의 지도를 보려면 녹색 화살표를 클릭하세요.


METAR-TAF: